Terminal Aerodrome Forecast
Issued by NWS

Home | Current Version | Previous Version | Text Only | Print | Product List | Glossary On
Versions: 1 2 3 4 5 6 7 8 9 10 11 12 13 14 15 16 17 18 19 20 21 22 23 24 25 26 27 28 29 30
412
FTUS41 KBOX 032322
TAFHYA
TAF
KHYA 032322Z 0400/0424 04009KT P6SM VCSH OVC008
     FM040400 04005KT P6SM OVC008
     FM041400 05009KT P6SM OVC010
     FM041700 06009KT P6SM VCSH OVC008
     FM042000 06009KT P6SM -SHRA OVC008=

USA.gov is the U.S. government's official web portal to all federal, state and local government web resources and services.